TimeCDT,TemperatureF,Dew PointF,Humidity,Sea Level PressureIn,VisibilityMPH,Wind Direction,Wind SpeedMPH,Gust SpeedMPH,PrecipitationIn,Events,Conditions,WindDirDegrees,DateUTC
12:55 AM,71.6,66.2,83,30.00,10.0,ESE,5.8,-,N/A,,Clear,110,2012-10-04 05:55:00
1:49 AM,71.6,66.2,83,30.00,10.0,ESE,5.8,-,N/A,,Mostly Cloudy,110,2012-10-04 06:49:00
1:50 AM,71.6,66.2,83,30.00,10.0,East,5.8,-,N/A,,Mostly Cloudy,100,2012-10-04 06:50:00
1:55 AM,71.2,66.7,86,30.00,10.0,East,6.9,-,N/A,,Mostly Cloudy,100,2012-10-04 06:55:00
2:08 AM,71.6,66.2,83,30.00,10.0,ESE,6.9,-,N/A,,Scattered Clouds,110,2012-10-04 07:08:00
2:55 AM,71.1,67.5,88,29.99,10.0,East,5.8,-,N/A,,Clear,100,2012-10-04 07:55:00
3:01 AM,71.6,68.0,88,29.99,10.0,East,5.8,-,N/A,,Partly Cloudy,100,2012-10-04 08:01:00
3:16 AM,71.6,68.0,88,29.99,10.0,East,4.6,-,N/A,,Mostly Cloudy,100,2012-10-04 08:16:00
3:30 AM,71.6,68.0,88,29.99,10.0,East,3.5,-,N/A,,Mostly Cloudy,100,2012-10-04 08:30:00
3:55 AM,71.6,68.5,90,29.99,10.0,ESE,4.6,-,N/A,,Overcast,110,2012-10-04 08:55:00
4:25 AM,71.6,69.8,94,29.98,10.0,ESE,5.8,-,N/A,,Overcast,120,2012-10-04 09:25:00
4:50 AM,71.6,69.8,94,29.98,10.0,ESE,5.8,-,N/A,,Overcast,120,2012-10-04 09:50:00
4:55 AM,72.1,69.8,92,29.99,10.0,ESE,5.8,-,N/A,,Overcast,120,2012-10-04 09:55:00
5:46 AM,71.6,69.8,94,29.99,10.0,ESE,5.8,-,N/A,,Overcast,110,2012-10-04 10:46:00
5:55 AM,72.5,70.3,93,30.00,10.0,SE,6.9,-,N/A,,Overcast,130,2012-10-04 10:55:00
6:03 AM,73.4,69.8,88,30.00,10.0,ESE,5.8,-,N/A,,Overcast,120,2012-10-04 11:03:00
6:55 AM,72.9,70.7,93,30.01,10.0,ESE,4.6,-,N/A,,Overcast,110,2012-10-04 11:55:00
6:56 AM,73.4,71.6,94,30.01,10.0,ESE,4.6,-,N/A,,Overcast,110,2012-10-04 11:56:00
7:18 AM,73.4,71.6,94,30.01,10.0,SE,6.9,-,N/A,,Overcast,130,2012-10-04 12:18:00
7:55 AM,73.2,71.1,93,30.02,10.0,ESE,9.2,-,N/A,,Overcast,120,2012-10-04 12:55:00
8:28 AM,73.4,71.6,94,30.03,10.0,SE,8.1,-,N/A,,Overcast,140,2012-10-04 13:28:00
8:55 AM,73.9,71.4,92,30.04,10.0,SSE,8.1,-,N/A,,Overcast,150,2012-10-04 13:55:00
9:32 AM,75.2,71.6,89,30.04,10.0,SE,9.2,-,N/A,,Overcast,140,2012-10-04 14:32:00
9:55 AM,75.6,71.4,87,30.05,10.0,SSE,10.4,-,N/A,,Overcast,150,2012-10-04 14:55:00
9:59 AM,75.2,71.6,89,30.05,10.0,SSE,9.2,-,N/A,,Overcast,150,2012-10-04 14:59:00
10:20 AM,77.0,71.6,83,30.05,10.0,SSE,11.5,-,N/A,,Overcast,150,2012-10-04 15:20:00
10:29 AM,78.8,71.6,78,30.05,10.0,SE,13.8,-,N/A,,Overcast,140,2012-10-04 15:29:00
10:31 AM,78.8,71.6,78,30.05,10.0,SSE,12.7,-,N/A,,Mostly Cloudy,160,2012-10-04 15:31:00
10:39 AM,78.8,71.6,78,30.05,10.0,SSE,12.7,-,N/A,,Mostly Cloudy,150,2012-10-04 15:39:00
10:55 AM,79.5,71.4,76,30.04,10.0,SSE,13.8,-,N/A,,Mostly Cloudy,150,2012-10-04 15:55:00
11:16 AM,80.6,71.6,74,30.04,10.0,SE,15.0,-,N/A,,Mostly Cloudy,140,2012-10-04 16:16:00
11:21 AM,82.4,71.6,70,30.04,10.0,SSE,16.1,20.7,N/A,,Mostly Cloudy,150,2012-10-04 16:21:00
11:27 AM,82.4,71.6,70,30.04,10.0,SSE,15.0,20.7,N/A,,Scattered Clouds,150,2012-10-04 16:27:00
11:55 AM,83.3,71.6,68,30.06,10.0,SSE,12.7,-,N/A,,Partly Cloudy,150,2012-10-04 16:55:00
12:55 PM,85.8,70.5,60,30.04,10.0,SSE,15.0,-,N/A,,Clear,150,2012-10-04 17:55:00
1:54 PM,87.8,71.6,58,30.02,10.0,SSE,10.4,18.4,N/A,,Light Drizzle,150,2012-10-04 18:54:00
1:55 PM,87.4,71.1,58,30.02,10.0,SSE,11.5,18.4,0.00,,Light Drizzle,160,2012-10-04 18:55:00
2:03 PM,87.8,69.8,55,30.02,10.0,SE,10.4,-,N/A,,Clear,140,2012-10-04 19:03:00
2:29 PM,87.8,69.8,55,30.01,10.0,South,11.5,-,N/A,,Light Drizzle,180,2012-10-04 19:29:00
2:34 PM,87.8,69.8,55,30.01,10.0,SSE,13.8,-,N/A,,Clear,160,2012-10-04 19:34:00
2:55 PM,88.5,69.1,52,30.01,10.0,SSE,12.7,18.4,N/A,,Clear,150,2012-10-04 19:55:00
3:55 PM,89.6,68.7,50,29.99,10.0,South,8.1,-,N/A,,Clear,170,2012-10-04 20:55:00
4:55 PM,89.8,67.6,48,29.99,10.0,SSE,11.5,-,N/A,,Clear,150,2012-10-04 21:55:00
5:55 PM,89.1,68.4,50,29.99,10.0,SE,13.8,-,N/A,,Clear,140,2012-10-04 22:55:00
6:55 PM,86.4,72.1,62,29.99,10.0,SE,18.4,-,N/A,,Clear,130,2012-10-04 23:55:00
7:55 PM,82.6,71.8,70,30.01,10.0,SE,10.4,-,N/A,,Clear,130,2012-10-05 00:55:00
8:55 PM,80.2,71.4,74,30.04,10.0,SE,15.0,21.9,N/A,,Clear,130,2012-10-05 01:55:00
9:21 PM,78.8,71.6,78,30.05,10.0,ESE,12.7,-,N/A,,Mostly Cloudy,120,2012-10-05 02:21:00
9:25 PM,78.8,71.6,78,30.05,10.0,SE,16.1,-,N/A,,Scattered Clouds,130,2012-10-05 02:25:00
9:26 PM,78.8,71.6,78,30.05,10.0,SE,15.0,-,N/A,,Mostly Cloudy,130,2012-10-05 02:26:00
9:29 PM,78.8,71.6,78,30.05,10.0,ESE,13.8,-,N/A,,Mostly Cloudy,120,2012-10-05 02:29:00
9:46 PM,78.8,71.6,78,30.05,10.0,ESE,10.4,19.6,N/A,,Scattered Clouds,120,2012-10-05 02:46:00
9:48 PM,78.8,71.6,78,30.05,10.0,ESE,12.7,-,N/A,,Mostly Cloudy,120,2012-10-05 02:48:00
9:50 PM,78.8,71.6,78,30.05,10.0,SE,12.7,-,N/A,,Scattered Clouds,130,2012-10-05 02:50:00
9:52 PM,78.8,71.6,78,30.05,10.0,ESE,9.2,-,N/A,,Mostly Cloudy,120,2012-10-05 02:52:00
9:55 PM,78.1,71.6,80,30.06,10.0,SE,10.4,-,N/A,,Mostly Cloudy,130,2012-10-05 02:55:00
10:03 PM,77.0,71.6,83,30.06,10.0,SE,13.8,-,N/A,,Scattered Clouds,130,2012-10-05 03:03:00
10:44 PM,77.0,71.6,83,30.07,10.0,SE,10.4,-,N/A,,Mostly Cloudy,130,2012-10-05 03:44:00
10:51 PM,77.0,71.6,83,30.07,10.0,ESE,6.9,-,N/A,,Mostly Cloudy,120,2012-10-05 03:51:00
10:55 PM,77.4,71.2,81,30.07,10.0,ESE,11.5,-,N/A,,Mostly Cloudy,120,2012-10-05 03:55:00
11:29 PM,77.0,71.6,83,30.08,10.0,ESE,8.1,-,N/A,,Overcast,120,2012-10-05 04:29:00
11:31 PM,77.0,71.6,83,30.08,10.0,ESE,8.1,-,N/A,,Overcast,110,2012-10-05 04:31:00
11:55 PM,76.3,70.9,83,30.08,10.0,East,6.9,-,N/A,,Overcast,100,2012-10-05 04:55:00